Time;durP1;ratioP1;P1;durP2;ratioP2;P2;SDS_P1;SDS_P2;PMS_P1;PMS_P2;Temp;Humidity;BMP_temperature;BMP_pressure;BME280_temperature;BME280_humidity;BME280_pressure;Samples;Min_cycle;Max_cycle;Signal;HPM_P1;HPM_P2
2023/04/10 00:01:08;;;;;;;27.67;18.77;;;;;;;;;;5029564;28;20269;-67
2023/04/10 00:03:33;;;;;;;24.25;18.45;;;;;;;;;;5030647;28;20226;-67
2023/04/10 00:05:59;;;;;;;26.88;19.88;;;;;;;;;;5029936;28;20208;-67
2023/04/10 00:08:24;;;;;;;24.38;18.90;;;;;;;;;;5030368;28;20262;-67
2023/04/10 00:10:49;;;;;;;25.15;19.52;;;;;;;;;;5030639;28;20215;-66
2023/04/10 00:13:15;;;;;;;24.70;18.63;;;;;;;;;;5012670;28;20747;-66
2023/04/10 00:15:40;;;;;;;24.10;18.30;;;;;;;;;;5011777;28;20273;-66
2023/04/10 00:18:05;;;;;;;22.35;18.25;;;;;;;;;;5019631;28;20720;-66
2023/04/10 00:20:31;;;;;;;23.25;18.35;;;;;;;;;;4999627;28;20564;-66
2023/04/10 00:22:56;;;;;;;23.88;17.85;;;;;;;;;;5014850;28;20230;-66
2023/04/10 00:25:22;;;;;;;23.70;18.27;;;;;;;;;;5000722;28;20269;-66
2023/04/10 00:27:47;;;;;;;23.83;18.38;;;;;;;;;;5000438;28;20239;-66
2023/04/10 00:30:12;;;;;;;24.60;17.17;;;;;;;;;;5006033;28;20228;-66
2023/04/10 00:32:38;;;;;;;22.65;17.88;;;;;;;;;;5013275;28;20218;-67
2023/04/10 00:35:03;;;;;;;22.15;16.60;;;;;;;;;;5011537;28;20220;-66
2023/04/10 00:37:28;;;;;;;24.83;17.73;;;;;;;;;;5011789;28;20748;-66
2023/04/10 00:39:54;;;;;;;20.98;16.88;;;;;;;;;;5019309;28;20208;-66
2023/04/10 00:42:19;;;;;;;21.85;17.90;;;;;;;;;;5019468;28;20219;-66
2023/04/10 00:44:44;;;;;;;21.40;16.35;;;;;;;;;;5020063;28;20225;-66
2023/04/10 00:47:10;;;;;;;21.42;16.50;;;;;;;;;;5018094;28;20196;-66
2023/04/10 00:49:36;;;;;;;22.00;16.67;;;;;;;;;;5018200;28;20220;-66
2023/04/10 00:52:01;;;;;;;22.23;16.35;;;;;;;;;;5019713;28;20297;-66
2023/04/10 00:54:26;;;;;;;21.60;16.75;;;;;;;;;;5001041;28;20251;-67
2023/04/10 00:56:51;;;;;;;19.10;15.70;;;;;;;;;;5009939;28;20250;-67
2023/04/10 00:59:17;;;;;;;21.67;16.15;;;;;;;;;;4991359;28;20710;-66
2023/04/10 01:01:42;;;;;;;20.48;16.23;;;;;;;;;;4998200;28;20220;-67
2023/04/10 01:04:08;;;;;;;21.98;16.08;;;;;;;;;;5000954;28;20267;-66
2023/04/10 01:06:54;;;;;;;20.10;15.68;;;;;;;;;;5022219;28;20216;-66
2023/04/10 01:09:32;;;;;;;20.67;15.52;;;;;;;;;;5022817;28;20441;-66
2023/04/10 01:12:01;;;;;;;19.50;15.77;;;;;;;;;;5023520;28;20215;-66
2023/04/10 01:14:27;;;;;;;20.52;15.52;;;;;;;;;;5027993;28;20572;-66
2023/04/10 01:16:57;;;;;;;19.25;15.55;;;;;;;;;;5030957;28;20234;-66
2023/04/10 01:19:25;;;;;;;23.00;15.57;;;;;;;;;;5033362;28;20574;-66
2023/04/10 01:21:50;;;;;;;22.55;16.63;;;;;;;;;;5016226;28;20722;-66
2023/04/10 01:24:22;;;;;;;18.92;15.02;;;;;;;;;;5014731;28;20219;-66
2023/04/10 01:27:00;;;;;;;22.00;15.52;;;;;;;;;;5033662;28;20216;-66
2023/04/10 01:29:28;;;;;;;19.60;14.98;;;;;;;;;;5033643;28;20288;-66
2023/04/10 01:31:56;;;;;;;19.58;15.10;;;;;;;;;;5031709;28;20216;-67
2023/04/10 01:34:22;;;;;;;19.27;15.13;;;;;;;;;;5031851;28;20235;-66
2023/04/10 01:36:50;;;;;;;19.65;14.95;;;;;;;;;;5032354;28;20216;-66
2023/04/10 01:39:17;;;;;;;18.45;14.90;;;;;;;;;;5032199;28;20211;-66
2023/04/10 01:41:42;;;;;;;21.38;14.43;;;;;;;;;;5033141;28;20212;-66
2023/04/10 01:44:07;;;;;;;17.88;13.82;;;;;;;;;;5032927;28;20226;-66
2023/04/10 01:46:32;;;;;;;18.80;15.30;;;;;;;;;;5009934;28;20579;-66
2023/04/10 01:48:58;;;;;;;19.95;15.20;;;;;;;;;;4998469;28;20397;-66
2023/04/10 01:51:25;;;;;;;20.75;14.50;;;;;;;;;;5009554;28;20212;-66
2023/04/10 01:53:50;;;;;;;20.40;15.57;;;;;;;;;;4994279;28;20635;-67
2023/04/10 01:56:15;;;;;;;21.58;15.10;;;;;;;;;;5013848;28;20223;-66
2023/04/10 01:58:40;;;;;;;20.45;14.95;;;;;;;;;;5010524;28;20311;-67
2023/04/10 02:01:06;;;;;;;19.88;14.68;;;;;;;;;;5018133;28;20983;-66
2023/04/10 02:03:31;;;;;;;19.65;14.48;;;;;;;;;;5002464;28;20236;-67
2023/04/10 02:06:02;;;;;;;18.75;14.68;;;;;;;;;;4991443;28;20304;-66
2023/04/10 02:08:30;;;;;;;17.92;14.40;;;;;;;;;;4995166;28;20724;-67
2023/04/10 02:10:59;;;;;;;21.50;15.60;;;;;;;;;;5018077;28;20561;-67
2023/04/10 02:13:25;;;;;;;18.77;14.70;;;;;;;;;;5002779;28;20706;-66
2023/04/10 02:15:51;;;;;;;17.95;14.23;;;;;;;;;;5003851;28;20714;-67
2023/04/10 02:18:16;;;;;;;18.05;14.18;;;;;;;;;;5014932;28;20250;-66
2023/04/10 02:20:41;;;;;;;20.35;14.95;;;;;;;;;;5016529;28;20219;-67
2023/04/10 02:23:07;;;;;;;19.92;13.82;;;;;;;;;;4996286;28;20557;-66
2023/04/10 02:25:32;;;;;;;21.77;14.75;;;;;;;;;;4993334;28;20235;-67
2023/04/10 02:28:02;;;;;;;19.65;15.20;;;;;;;;;;4992605;28;20217;-67
2023/04/10 02:30:28;;;;;;;19.58;14.82;;;;;;;;;;5004495;28;20216;-66
2023/04/10 02:32:54;;;;;;;18.98;14.43;;;;;;;;;;5003674;28;20286;-67
2023/04/10 02:35:19;;;;;;;19.55;14.27;;;;;;;;;;4995563;28;20258;-67
2023/04/10 02:37:46;;;;;;;18.33;14.23;;;;;;;;;;4996368;28;20251;-67
2023/04/10 02:40:11;;;;;;;19.38;15.38;;;;;;;;;;4996692;28;20204;-67
2023/04/10 02:42:36;;;;;;;17.88;14.70;;;;;;;;;;5003555;28;20220;-67
2023/04/10 02:45:02;;;;;;;20.42;15.13;;;;;;;;;;5003629;28;20219;-66
2023/04/10 02:47:27;;;;;;;19.27;14.80;;;;;;;;;;5000480;28;20291;-66
2023/04/10 02:49:52;;;;;;;19.92;14.38;;;;;;;;;;5004830;28;20603;-67
2023/04/10 02:52:17;;;;;;;19.95;14.75;;;;;;;;;;5015663;28;20227;-66
2023/04/10 02:54:43;;;;;;;19.73;14.43;;;;;;;;;;5027450;28;20244;-67
2023/04/10 02:57:08;;;;;;;19.05;14.10;;;;;;;;;;5033474;28;20582;-66
2023/04/10 02:59:33;;;;;;;19.02;14.40;;;;;;;;;;5033607;28;20265;-66
2023/04/10 03:01:59;;;;;;;19.45;14.10;;;;;;;;;;5033256;28;20216;-67
2023/04/10 03:04:24;;;;;;;20.23;14.98;;;;;;;;;;5019286;28;20216;-66
2023/04/10 03:06:49;;;;;;;19.23;14.98;;;;;;;;;;5014038;28;20586;-67
2023/04/10 03:09:15;;;;;;;20.05;14.93;;;;;;;;;;5012712;28;20215;-67
2023/04/10 03:11:40;;;;;;;20.25;14.93;;;;;;;;;;5013973;28;20247;-67
2023/04/10 03:14:06;;;;;;;19.83;15.43;;;;;;;;;;5012900;28;20212;-66
2023/04/10 03:16:31;;;;;;;19.63;14.77;;;;;;;;;;4993550;28;20219;-67
2023/04/10 03:18:56;;;;;;;20.60;15.23;;;;;;;;;;5011914;28;20222;-67
2023/04/10 03:21:21;;;;;;;18.85;14.75;;;;;;;;;;4997202;28;20209;-67
2023/04/10 03:23:47;;;;;;;18.92;14.25;;;;;;;;;;4982377;28;20316;-67
2023/04/10 03:26:12;;;;;;;18.52;14.75;;;;;;;;;;4990498;28;20208;-67
2023/04/10 03:28:38;;;;;;;18.77;14.57;;;;;;;;;;5000804;28;20244;-67
2023/04/10 03:31:03;;;;;;;20.58;14.65;;;;;;;;;;4993274;28;20239;-67
2023/04/10 03:33:29;;;;;;;20.75;15.05;;;;;;;;;;4994011;28;20311;-67
2023/04/10 03:35:56;;;;;;;19.35;14.25;;;;;;;;;;4994470;28;20267;-67
2023/04/10 03:38:21;;;;;;;17.27;14.00;;;;;;;;;;4990781;28;20251;-67
2023/04/10 03:40:46;;;;;;;19.13;14.68;;;;;;;;;;5001318;28;20543;-67
2023/04/10 03:43:11;;;;;;;18.02;14.13;;;;;;;;;;5001019;28;20224;-67
2023/04/10 03:45:37;;;;;;;17.60;14.00;;;;;;;;;;5000144;28;20215;-67
2023/04/10 03:48:02;;;;;;;19.10;14.25;;;;;;;;;;4989851;28;20220;-66
2023/04/10 03:50:27;;;;;;;19.08;14.02;;;;;;;;;;4981761;28;20287;-67
2023/04/10 03:52:53;;;;;;;19.20;14.48;;;;;;;;;;4993455;28;20451;-67
2023/04/10 03:55:18;;;;;;;19.92;15.15;;;;;;;;;;4973704;28;20260;-67
2023/04/10 03:57:45;;;;;;;18.30;14.45;;;;;;;;;;4974648;28;20217;-67
2023/04/10 04:00:11;;;;;;;18.98;14.75;;;;;;;;;;4978027;28;20240;-67
2023/04/10 04:02:36;;;;;;;18.67;14.23;;;;;;;;;;4968015;28;20646;-67
2023/04/10 04:05:01;;;;;;;18.70;14.88;;;;;;;;;;4945059;28;20221;-67
2023/04/10 04:07:27;;;;;;;18.45;14.15;;;;;;;;;;4963271;28;20254;-67
2023/04/10 04:09:54;;;;;;;17.75;14.00;;;;;;;;;;4981481;28;20237;-67
2023/04/10 04:12:19;;;;;;;18.40;14.05;;;;;;;;;;4979938;28;20214;-67
2023/04/10 04:14:44;;;;;;;19.08;15.10;;;;;;;;;;4978620;28;20225;-67
2023/04/10 04:17:10;;;;;;;17.73;13.63;;;;;;;;;;4973250;28;20284;-67
2023/04/10 04:19:35;;;;;;;17.83;14.20;;;;;;;;;;4972823;28;20792;-67
2023/04/10 04:22:00;;;;;;;19.00;14.30;;;;;;;;;;4982310;28;20223;-65
2023/04/10 04:24:26;;;;;;;18.75;13.85;;;;;;;;;;5002146;28;20225;-67
2023/04/10 04:26:51;;;;;;;17.98;13.65;;;;;;;;;;5010024;28;20607;-67
2023/04/10 04:29:16;;;;;;;19.60;14.30;;;;;;;;;;5009968;28;20690;-67
2023/04/10 04:31:42;;;;;;;19.92;13.55;;;;;;;;;;4993069;28;20223;-66
2023/04/10 04:34:07;;;;;;;18.02;13.77;;;;;;;;;;4997307;28;20699;-67
2023/04/10 04:36:32;;;;;;;17.63;13.05;;;;;;;;;;4981466;28;20213;-67
2023/04/10 04:38:57;;;;;;;17.98;13.13;;;;;;;;;;4981334;28;20263;-66
2023/04/10 04:41:23;;;;;;;18.52;13.85;;;;;;;;;;4979653;28;20267;-67
2023/04/10 04:43:48;;;;;;;17.55;13.73;;;;;;;;;;4981346;28;20224;-67
2023/04/10 04:46:13;;;;;;;18.27;13.18;;;;;;;;;;4980093;28;20227;-67
2023/04/10 04:48:38;;;;;;;20.33;14.18;;;;;;;;;;4980595;28;20217;-67
2023/04/10 04:51:05;;;;;;;21.02;14.05;;;;;;;;;;4973771;28;20754;-67
2023/04/10 04:53:30;;;;;;;17.38;13.27;;;;;;;;;;4968996;28;20316;-67
2023/04/10 04:55:56;;;;;;;17.88;13.32;;;;;;;;;;4954044;28;20210;-67
2023/04/10 04:58:23;;;;;;;21.88;13.52;;;;;;;;;;4960641;28;20205;-67
2023/04/10 05:00:49;;;;;;;19.92;13.85;;;;;;;;;;4980772;28;20217;-67
2023/04/10 05:03:14;;;;;;;17.13;13.25;;;;;;;;;;4974851;28;20233;-67
2023/04/10 05:05:39;;;;;;;16.77;13.57;;;;;;;;;;4961871;28;20222;-67
2023/04/10 05:08:04;;;;;;;16.75;12.88;;;;;;;;;;4961263;28;20218;-67
2023/04/10 05:10:30;;;;;;;17.40;13.40;;;;;;;;;;4961110;28;20218;-67
2023/04/10 05:12:55;;;;;;;16.45;12.88;;;;;;;;;;4974903;28;20683;-67
2023/04/10 05:15:21;;;;;;;17.05;13.02;;;;;;;;;;4972127;28;20212;-67
2023/04/10 05:17:49;;;;;;;17.60;13.18;;;;;;;;;;4973128;28;20571;-67
2023/04/10 05:20:15;;;;;;;18.15;12.13;;;;;;;;;;4976387;28;20220;-67
2023/04/10 05:22:40;;;;;;;15.77;12.45;;;;;;;;;;4979298;28;20550;-67
2023/04/10 05:25:05;;;;;;;17.98;12.93;;;;;;;;;;4963256;28;20213;-67
2023/04/10 05:27:31;;;;;;;16.57;12.97;;;;;;;;;;4980868;28;20652;-69
2023/04/10 05:29:56;;;;;;;15.73;12.60;;;;;;;;;;4989377;28;20428;-68
2023/04/10 05:32:21;;;;;;;17.05;12.85;;;;;;;;;;4988989;28;20444;-70
2023/04/10 05:34:47;;;;;;;18.73;12.18;;;;;;;;;;4991376;28;20217;-69
2023/04/10 05:37:12;;;;;;;19.63;14.10;;;;;;;;;;4990712;28;20764;-68
2023/04/10 05:39:37;;;;;;;16.05;12.23;;;;;;;;;;4992100;28;20213;-67
2023/04/10 05:42:02;;;;;;;17.90;13.50;;;;;;;;;;4991552;28;20296;-66
2023/04/10 05:44:29;;;;;;;17.30;12.98;;;;;;;;;;4989814;28;20205;-65
2023/04/10 05:46:55;;;;;;;16.92;12.02;;;;;;;;;;4991674;28;20691;-66
2023/04/10 05:49:20;;;;;;;16.23;12.68;;;;;;;;;;4991978;28;20221;-66
2023/04/10 05:51:49;;;;;;;15.93;12.15;;;;;;;;;;4994974;28;20212;-65
2023/04/10 05:54:14;;;;;;;15.82;12.57;;;;;;;;;;4994955;28;20221;-65
2023/04/10 05:56:39;;;;;;;16.35;12.23;;;;;;;;;;4995509;28;20271;-65
2023/04/10 05:59:05;;;;;;;16.17;12.77;;;;;;;;;;4994318;28;20201;-65
2023/04/10 06:01:30;;;;;;;17.55;12.23;;;;;;;;;;4995289;28;21571;-65
2023/04/10 06:03:56;;;;;;;16.30;12.90;;;;;;;;;;4995079;28;20244;-66
2023/04/10 06:06:23;;;;;;;16.00;11.98;;;;;;;;;;4993746;28;20225;-66
2023/04/10 06:08:48;;;;;;;16.10;13.57;;;;;;;;;;4992948;28;20416;-67
2023/04/10 06:11:14;;;;;;;16.45;13.27;;;;;;;;;;4994224;28;20313;-66
2023/04/10 06:13:39;;;;;;;15.88;12.80;;;;;;;;;;4995045;28;20209;-67
2023/04/10 06:16:05;;;;;;;14.85;12.00;;;;;;;;;;4994866;28;20217;-67
2023/04/10 06:18:30;;;;;;;15.27;11.75;;;;;;;;;;4995405;28;20213;-66
2023/04/10 06:20:59;;;;;;;16.35;12.73;;;;;;;;;;4996603;28;20300;-67
2023/04/10 06:23:24;;;;;;;15.90;13.40;;;;;;;;;;5008777;28;20232;-67
2023/04/10 06:25:49;;;;;;;15.60;12.43;;;;;;;;;;4985953;28;20214;-68
2023/04/10 06:28:14;;;;;;;16.15;12.93;;;;;;;;;;4992906;28;20224;-69
2023/04/10 06:30:40;;;;;;;16.92;12.90;;;;;;;;;;4993069;28;20216;-68
2023/04/10 06:33:05;;;;;;;15.13;12.77;;;;;;;;;;4991678;28;20216;-68
2023/04/10 06:35:31;;;;;;;14.35;11.68;;;;;;;;;;4993771;28;20217;-67
2023/04/10 06:37:56;;;;;;;18.08;11.77;;;;;;;;;;4993275;28;20305;-67
2023/04/10 06:40:22;;;;;;;27.75;12.23;;;;;;;;;;4993379;28;20284;-67
2023/04/10 06:42:47;;;;;;;14.23;11.55;;;;;;;;;;4993400;28;20213;-68
2023/04/10 06:45:12;;;;;;;14.13;11.90;;;;;;;;;;4994063;28;20205;-66
2023/04/10 06:47:38;;;;;;;14.10;11.52;;;;;;;;;;4993495;28;20661;-66
2023/04/10 06:50:03;;;;;;;20.05;11.35;;;;;;;;;;4994054;28;20205;-66
2023/04/10 06:52:28;;;;;;;13.25;11.05;;;;;;;;;;4998731;28;20590;-66
2023/04/10 06:54:53;;;;;;;12.63;10.25;;;;;;;;;;5013169;28;20240;-68
2023/04/10 06:57:19;;;;;;;14.43;11.32;;;;;;;;;;5013319;28;20204;-67
2023/04/10 06:59:44;;;;;;;17.90;10.05;;;;;;;;;;5013826;28;20205;-67
2023/04/10 07:02:10;;;;;;;11.98;9.75;;;;;;;;;;5012476;28;20720;-67
2023/04/10 07:04:35;;;;;;;11.93;10.32;;;;;;;;;;5013491;28;20583;-68
2023/04/10 07:07:00;;;;;;;12.73;10.70;;;;;;;;;;5009787;28;20299;-66
2023/04/10 07:09:26;;;;;;;12.73;9.75;;;;;;;;;;5013054;28;20215;-68
2023/04/10 07:11:52;;;;;;;14.38;10.25;;;;;;;;;;5013744;28;20220;-67
2023/04/10 07:14:17;;;;;;;13.10;10.20;;;;;;;;;;5013693;28;20216;-68
2023/04/10 07:16:42;;;;;;;12.02;10.38;;;;;;;;;;5013188;28;20291;-68
2023/04/10 07:19:08;;;;;;;12.52;10.40;;;;;;;;;;5012085;28;20691;-67
2023/04/10 07:21:33;;;;;;;12.07;9.77;;;;;;;;;;5013984;28;20220;-67
2023/04/10 07:23:58;;;;;;;14.25;10.23;;;;;;;;;;5020963;28;20281;-68
2023/04/10 07:26:24;;;;;;;14.68;10.15;;;;;;;;;;5033180;28;20218;-69
2023/04/10 07:28:50;;;;;;;12.20;10.25;;;;;;;;;;5033641;28;20675;-67
2023/04/10 07:31:16;;;;;;;11.45;9.80;;;;;;;;;;5030037;28;20207;-69
2023/04/10 07:33:42;;;;;;;11.68;9.40;;;;;;;;;;5034339;28;20294;-68
2023/04/10 07:36:07;;;;;;;13.38;10.40;;;;;;;;;;5012723;28;20703;-69
2023/04/10 07:38:32;;;;;;;12.73;10.05;;;;;;;;;;5013111;28;20239;-70
2023/04/10 07:40:58;;;;;;;12.48;9.63;;;;;;;;;;5013186;28;20236;-70
2023/04/10 07:43:23;;;;;;;11.00;9.55;;;;;;;;;;5011919;28;20632;-70
2023/04/10 07:45:49;;;;;;;11.13;9.38;;;;;;;;;;5012956;28;20275;-70
2023/04/10 07:48:14;;;;;;;12.45;10.23;;;;;;;;;;5012413;28;20562;-71
2023/04/10 07:50:40;;;;;;;12.35;9.98;;;;;;;;;;5001886;28;20216;-69
2023/04/10 07:53:06;;;;;;;13.68;9.35;;;;;;;;;;5029395;28;20220;-68
2023/04/10 07:55:36;;;;;;;11.68;9.68;;;;;;;;;;5033093;28;20211;-69
2023/04/10 07:58:01;;;;;;;12.98;9.73;;;;;;;;;;5030558;28;20801;-68
2023/04/10 08:00:27;;;;;;;11.15;9.02;;;;;;;;;;5031822;28;20302;-70
2023/04/10 08:02:52;;;;;;;10.75;9.27;;;;;;;;;;5032316;28;20231;-70
2023/04/10 08:05:17;;;;;;;12.88;10.00;;;;;;;;;;5031174;28;20343;-70
2023/04/10 08:07:42;;;;;;;11.80;9.80;;;;;;;;;;5031310;28;20318;-69
2023/04/10 08:10:08;;;;;;;13.73;10.30;;;;;;;;;;5032489;28;20215;-70
2023/04/10 08:12:33;;;;;;;12.38;9.70;;;;;;;;;;5031639;28;20225;-70
2023/04/10 08:14:59;;;;;;;12.35;9.48;;;;;;;;;;5032579;28;20212;-70
2023/04/10 08:17:24;;;;;;;12.15;9.73;;;;;;;;;;5032134;28;20216;-69
2023/04/10 08:19:49;;;;;;;12.40;9.13;;;;;;;;;;5031606;28;20697;-70
2023/04/10 08:22:15;;;;;;;12.02;9.38;;;;;;;;;;5031700;28;20238;-70
2023/04/10 08:24:40;;;;;;;11.40;9.00;;;;;;;;;;5032571;28;20223;-70
2023/04/10 08:27:05;;;;;;;11.95;8.70;;;;;;;;;;5031303;28;20223;-70
2023/04/10 08:29:30;;;;;;;13.73;8.80;;;;;;;;;;5032559;28;20235;-70
2023/04/10 08:31:59;;;;;;;12.18;9.05;;;;;;;;;;5031288;28;20220;-70
2023/04/10 08:34:24;;;;;;;11.95;9.40;;;;;;;;;;5031142;28;20247;-71
2023/04/10 08:36:49;;;;;;;10.90;8.68;;;;;;;;;;5030587;28;20321;-70
2023/04/10 08:39:15;;;;;;;14.18;8.52;;;;;;;;;;5031982;28;20258;-70
2023/04/10 08:41:40;;;;;;;11.40;8.32;;;;;;;;;;5031700;28;20223;-70
2023/04/10 08:44:05;;;;;;;10.27;8.18;;;;;;;;;;5031791;28;20238;-68
2023/04/10 08:46:31;;;;;;;11.10;8.48;;;;;;;;;;5031501;28;20710;-70
2023/04/10 08:48:57;;;;;;;10.38;8.48;;;;;;;;;;5032244;28;20295;-70
2023/04/10 08:51:23;;;;;;;11.48;8.13;;;;;;;;;;5031224;28;20215;-70
2023/04/10 08:53:50;;;;;;;9.48;8.10;;;;;;;;;;5030178;28;20224;-71
2023/04/10 08:56:15;;;;;;;10.05;8.18;;;;;;;;;;5031854;28;20246;-69
2023/04/10 08:58:41;;;;;;;11.30;8.35;;;;;;;;;;5031135;28;20212;-70
2023/04/10 09:01:06;;;;;;;10.63;7.80;;;;;;;;;;5031162;28;20239;-69
2023/04/10 09:03:31;;;;;;;10.75;8.20;;;;;;;;;;5031053;28;20301;-70
2023/04/10 09:05:57;;;;;;;9.82;7.72;;;;;;;;;;5030222;28;20214;-70
2023/04/10 09:08:22;;;;;;;9.93;7.35;;;;;;;;;;5030821;28;20211;-70
2023/04/10 09:10:48;;;;;;;8.68;7.20;;;;;;;;;;5032156;28;20353;-70
2023/04/10 09:13:13;;;;;;;9.85;7.82;;;;;;;;;;5030798;28;20219;-69
2023/04/10 09:15:54;;;;;;;8.90;6.90;;;;;;;;;;5030932;28;20220;-69
2023/04/10 09:18:20;;;;;;;8.85;7.53;;;;;;;;;;5031675;28;20212;-70
2023/04/10 09:20:50;;;;;;;9.23;7.40;;;;;;;;;;5031596;28;20310;-69
2023/04/10 09:23:20;;;;;;;9.75;7.25;;;;;;;;;;5029235;28;20208;-69
2023/04/10 09:25:45;;;;;;;9.60;7.65;;;;;;;;;;5033539;28;20217;-69
2023/04/10 09:28:10;;;;;;;8.85;7.45;;;;;;;;;;5035347;28;20693;-69
2023/04/10 09:30:36;;;;;;;10.00;7.60;;;;;;;;;;5033888;28;20232;-69
2023/04/10 09:33:02;;;;;;;11.95;7.38;;;;;;;;;;5033973;28;20634;-69
2023/04/10 09:35:34;;;;;;;10.13;7.60;;;;;;;;;;5034366;28;20299;-69
2023/04/10 09:37:59;;;;;;;9.63;7.80;;;;;;;;;;5033696;28;20216;-69
2023/04/10 09:40:25;;;;;;;9.23;7.30;;;;;;;;;;5035224;28;20306;-69
2023/04/10 09:42:51;;;;;;;11.02;7.70;;;;;;;;;;5034756;28;20220;-70
2023/04/10 09:45:22;;;;;;;9.02;7.20;;;;;;;;;;5035082;28;20679;-70
2023/04/10 09:48:01;;;;;;;10.10;7.13;;;;;;;;;;5035540;28;20208;-69
2023/04/10 09:50:33;;;;;;;10.30;6.93;;;;;;;;;;5034116;28;20569;-69
2023/04/10 09:52:58;;;;;;;9.57;7.47;;;;;;;;;;5033583;28;20298;-69
2023/04/10 09:55:23;;;;;;;8.93;7.63;;;;;;;;;;5034318;28;20619;-70
2023/04/10 09:57:49;;;;;;;11.95;7.55;;;;;;;;;;5034276;28;20208;-71
2023/04/10 10:00:14;;;;;;;9.45;7.40;;;;;;;;;;5034898;28;20208;-70
2023/04/10 10:02:40;;;;;;;11.68;7.40;;;;;;;;;;5034029;28;20687;-70
2023/04/10 10:05:06;;;;;;;9.40;7.18;;;;;;;;;;5033636;28;20975;-70
2023/04/10 10:07:31;;;;;;;13.43;7.60;;;;;;;;;;5031971;28;20214;-70
2023/04/10 10:09:56;;;;;;;10.20;7.45;;;;;;;;;;5034078;28;20212;-70
2023/04/10 10:12:23;;;;;;;9.27;7.20;;;;;;;;;;5031848;28;20204;-70
2023/04/10 10:14:48;;;;;;;10.82;7.70;;;;;;;;;;5031812;28;20223;-71
2023/04/10 10:17:14;;;;;;;12.70;7.70;;;;;;;;;;5034424;28;20211;-70
2023/04/10 10:19:40;;;;;;;9.63;7.40;;;;;;;;;;5032910;28;20250;-70
2023/04/10 10:22:07;;;;;;;11.30;7.68;;;;;;;;;;5032787;28;20220;-69
2023/04/10 10:24:33;;;;;;;9.63;7.50;;;;;;;;;;5034596;28;20679;-69
2023/04/10 10:26:58;;;;;;;9.02;7.63;;;;;;;;;;5033881;28;20216;-69
2023/04/10 10:29:23;;;;;;;8.60;7.18;;;;;;;;;;5034413;28;20224;-69
2023/04/10 10:31:49;;;;;;;9.43;7.28;;;;;;;;;;5033482;28;20582;-70
2023/04/10 10:34:15;;;;;;;8.95;7.00;;;;;;;;;;5033556;28;20274;-69
2023/04/10 10:36:40;;;;;;;9.98;7.47;;;;;;;;;;5033862;28;20235;-70
2023/04/10 10:39:07;;;;;;;12.50;7.78;;;;;;;;;;5031590;28;20624;-69
2023/04/10 10:41:36;;;;;;;10.32;7.45;;;;;;;;;;5033975;28;20222;-67
2023/04/10 10:44:13;;;;;;;9.40;7.20;;;;;;;;;;5033730;28;20215;-68
2023/04/10 10:46:45;;;;;;;10.10;7.47;;;;;;;;;;5032339;28;20231;-69
2023/04/10 10:49:11;;;;;;;11.23;7.55;;;;;;;;;;5033941;28;20611;-69
2023/04/10 10:51:44;;;;;;;8.93;7.25;;;;;;;;;;5034081;28;20307;-69
2023/04/10 10:54:28;;;;;;;9.10;6.88;;;;;;;;;;5031177;28;20224;-68
2023/04/10 10:56:53;;;;;;;9.30;7.03;;;;;;;;;;5034372;28;20687;-69
2023/04/10 10:59:39;;;;;;;9.88;7.47;;;;;;;;;;5033872;28;20246;-69
2023/04/10 11:02:11;;;;;;;9.38;6.70;;;;;;;;;;5032892;28;20319;-69
2023/04/10 11:04:42;;;;;;;8.80;7.05;;;;;;;;;;5033913;28;20229;-69
2023/04/10 11:07:07;;;;;;;9.18;7.28;;;;;;;;;;5032907;28;20211;-68
2023/04/10 11:09:45;;;;;;;10.00;7.50;;;;;;;;;;5033820;28;20238;-69
2023/04/10 11:12:10;;;;;;;9.70;7.03;;;;;;;;;;5032080;28;20574;-66
2023/04/10 11:14:35;;;;;;;9.55;7.13;;;;;;;;;;5032705;28;20212;-68
2023/04/10 11:17:01;;;;;;;9.88;7.03;;;;;;;;;;5031129;28;20207;-66
2023/04/10 11:19:26;;;;;;;9.88;6.43;;;;;;;;;;5033135;28;20220;-67
2023/04/10 11:21:59;;;;;;;10.15;6.80;;;;;;;;;;5032926;28;20212;-68
2023/04/10 11:24:24;;;;;;;10.65;6.72;;;;;;;;;;5031881;28;20413;-68
2023/04/10 11:26:49;;;;;;;7.95;6.22;;;;;;;;;;5032256;28;20666;-66
2023/04/10 11:29:15;;;;;;;11.60;6.25;;;;;;;;;;5032257;28;20311;-66
2023/04/10 11:31:41;;;;;;;8.35;5.30;;;;;;;;;;5033573;28;20220;-65
2023/04/10 11:34:06;;;;;;;6.53;5.07;;;;;;;;;;5031534;28;20269;-67
2023/04/10 11:36:33;;;;;;;7.93;4.60;;;;;;;;;;5030866;28;20693;-68
2023/04/10 11:38:58;;;;;;;7.32;4.60;;;;;;;;;;5031927;28;20231;-68
2023/04/10 11:41:27;;;;;;;7.05;4.40;;;;;;;;;;5032701;28;20266;-67
2023/04/10 11:43:52;;;;;;;7.63;4.43;;;;;;;;;;5032452;28;20227;-67
2023/04/10 11:46:18;;;;;;;7.90;4.65;;;;;;;;;;5031234;28;20219;-66
2023/04/10 11:48:43;;;;;;;6.70;4.65;;;;;;;;;;5031134;28;20285;-65
2023/04/10 11:51:09;;;;;;;9.13;4.25;;;;;;;;;;5031501;28;20207;-67
2023/04/10 11:53:34;;;;;;;6.03;4.25;;;;;;;;;;5018361;28;20228;-66
2023/04/10 11:55:59;;;;;;;6.53;4.68;;;;;;;;;;5012867;28;20749;-68
2023/04/10 11:58:25;;;;;;;6.40;4.43;;;;;;;;;;5011876;28;20259;-68
2023/04/10 12:00:55;;;;;;;8.68;4.95;;;;;;;;;;5012930;28;20232;-69
2023/04/10 12:03:36;;;;;;;6.97;4.38;;;;;;;;;;4994273;28;20248;-68
2023/04/10 12:06:02;;;;;;;5.68;4.43;;;;;;;;;;5012179;28;20687;-67
2023/04/10 12:08:31;;;;;;;6.75;4.43;;;;;;;;;;4995503;28;20307;-68
2023/04/10 12:10:56;;;;;;;6.13;4.40;;;;;;;;;;5012048;28;20216;-68
2023/04/10 12:13:23;;;;;;;7.65;4.65;;;;;;;;;;5012410;28;20208;-68
2023/04/10 12:15:48;;;;;;;6.03;4.25;;;;;;;;;;5012719;28;20246;-68
2023/04/10 12:18:14;;;;;;;6.70;4.60;;;;;;;;;;5011467;28;20613;-68
2023/04/10 12:20:39;;;;;;;6.00;4.10;;;;;;;;;;5012673;28;20220;-69
2023/04/10 12:23:05;;;;;;;7.63;4.30;;;;;;;;;;5012210;28;20650;-68
2023/04/10 12:25:30;;;;;;;6.53;4.40;;;;;;;;;;4994242;28;20695;-68
2023/04/10 12:27:55;;;;;;;7.75;4.47;;;;;;;;;;5012681;28;20270;-68
2023/04/10 12:30:21;;;;;;;5.30;4.20;;;;;;;;;;5011938;28;20744;-68
2023/04/10 12:32:50;;;;;;;5.50;4.05;;;;;;;;;;5012195;28;20212;-68
2023/04/10 12:35:15;;;;;;;5.72;3.80;;;;;;;;;;5011833;28;20217;-68
2023/04/10 12:37:50;;;;;;;6.07;3.83;;;;;;;;;;5012485;28;20271;-68
2023/04/10 12:40:15;;;;;;;6.35;4.05;;;;;;;;;;4993543;28;20215;-67
2023/04/10 12:42:41;;;;;;;6.70;4.13;;;;;;;;;;5012242;28;20228;-68
2023/04/10 12:45:08;;;;;;;4.55;3.50;;;;;;;;;;4994592;28;20585;-67
2023/04/10 12:47:41;;;;;;;5.55;3.67;;;;;;;;;;5011674;28;20320;-68
2023/04/10 12:50:08;;;;;;;5.47;3.40;;;;;;;;;;5012045;28;20303;-68
2023/04/10 12:52:34;;;;;;;3.90;3.20;;;;;;;;;;5017891;28;20254;-68
2023/04/10 12:55:11;;;;;;;4.20;3.20;;;;;;;;;;5032068;28;20678;-68
2023/04/10 12:57:36;;;;;;;6.07;3.22;;;;;;;;;;5020203;28;20208;-68
2023/04/10 13:00:02;;;;;;;4.97;3.38;;;;;;;;;;5014531;28;20223;-68
2023/04/10 13:02:28;;;;;;;6.05;3.22;;;;;;;;;;5016218;28;20295;-68
2023/04/10 13:04:53;;;;;;;8.32;3.40;;;;;;;;;;5016553;28;20354;-68
2023/04/10 13:07:19;;;;;;;6.18;3.42;;;;;;;;;;5015061;28;20684;-68
2023/04/10 13:09:44;;;;;;;5.47;3.03;;;;;;;;;;5016463;28;20216;-68
2023/04/10 13:12:10;;;;;;;4.00;3.20;;;;;;;;;;4998103;28;20215;-68
2023/04/10 13:14:36;;;;;;;4.20;3.15;;;;;;;;;;5015439;28;20692;-69
2023/04/10 13:17:01;;;;;;;6.32;2.85;;;;;;;;;;5015523;28;20224;-64
2023/04/10 13:19:26;;;;;;;5.50;2.97;;;;;;;;;;5015312;28;20415;-63
2023/04/10 13:21:52;;;;;;;5.45;3.00;;;;;;;;;;5015350;28;20208;-66
2023/04/10 13:24:17;;;;;;;5.82;3.20;;;;;;;;;;5025916;28;20245;-67
2023/04/10 13:26:42;;;;;;;3.95;3.08;;;;;;;;;;5035459;28;20222;-66
2023/04/10 13:29:07;;;;;;;3.78;2.85;;;;;;;;;;5034557;28;20266;-65
2023/04/10 13:31:33;;;;;;;4.95;3.10;;;;;;;;;;5035772;28;20216;-67
2023/04/10 13:33:58;;;;;;;6.15;3.00;;;;;;;;;;5035870;28;20354;-67
2023/04/10 13:36:23;;;;;;;5.15;3.40;;;;;;;;;;5034247;28;20342;-66
2023/04/10 13:38:49;;;;;;;4.50;2.92;;;;;;;;;;5031231;28;20212;-65
2023/04/10 13:41:15;;;;;;;5.85;3.20;;;;;;;;;;5033295;28;20777;-66
2023/04/10 13:43:40;;;;;;;4.20;3.00;;;;;;;;;;5019792;28;20315;-66
2023/04/10 13:46:05;;;;;;;5.03;3.33;;;;;;;;;;5034409;28;20203;-66
2023/04/10 13:48:31;;;;;;;5.15;3.20;;;;;;;;;;5035009;28;20208;-65
2023/04/10 13:50:56;;;;;;;5.43;3.25;;;;;;;;;;5034717;28;20204;-65
2023/04/10 13:53:21;;;;;;;5.90;3.00;;;;;;;;;;5034674;28;20255;-65
2023/04/10 13:55:48;;;;;;;5.13;2.85;;;;;;;;;;5033688;28;20246;-66
2023/04/10 13:58:14;;;;;;;4.20;3.05;;;;;;;;;;5011770;28;20209;-67
2023/04/10 14:00:41;;;;;;;4.68;3.00;;;;;;;;;;5006613;28;20207;-64
2023/04/10 14:03:08;;;;;;;5.28;3.03;;;;;;;;;;5002231;28;20657;-64
2023/04/10 14:05:34;;;;;;;4.22;2.90;;;;;;;;;;5005580;28;20216;-65
2023/04/10 14:07:59;;;;;;;4.28;3.10;;;;;;;;;;4992500;28;20576;-65
2023/04/10 14:10:25;;;;;;;5.75;3.20;;;;;;;;;;5007599;28;20221;-65
2023/04/10 14:12:50;;;;;;;6.32;2.95;;;;;;;;;;5027444;28;20207;-65
2023/04/10 14:15:15;;;;;;;4.63;3.05;;;;;;;;;;5019090;28;20216;-65
2023/04/10 14:17:40;;;;;;;4.30;2.97;;;;;;;;;;5008731;28;20211;-65
2023/04/10 14:20:06;;;;;;;4.18;3.10;;;;;;;;;;5008455;28;20567;-65